Time;durP1;ratioP1;P1;durP2;ratioP2;P2;SDS_P1;SDS_P2;PMS_P1;PMS_P2;Temp;Humidity;BMP_temperature;BMP_pressure;BME280_temperature;BME280_humidity;BME280_pressure;Samples;Min_cycle;Max_cycle;Signal;HPM_P1;HPM_P2
2022/08/05 00:01:22;;;;;;;4.60;3.40;;;;;;;19.95;100.00;99160.59;5040534;28;20258;-77
2022/08/05 00:03:54;;;;;;;4.13;3.53;;;;;;;19.96;100.00;99164.13;5043661;28;20286;-82
2022/08/05 00:06:23;;;;;;;3.33;3.13;;;;;;;19.93;100.00;99161.97;5040125;28;20334;-77
2022/08/05 00:08:59;;;;;;;4.00;3.27;;;;;;;19.90;100.00;99168.00;5044369;28;20241;-78
2022/08/05 00:11:26;;;;;;;3.93;3.30;;;;;;;19.89;100.00;99167.19;5040173;28;20227;-78
2022/08/05 00:14:01;;;;;;;3.90;3.60;;;;;;;19.84;100.00;99161.81;5047821;28;20867;-76
2022/08/05 00:16:38;;;;;;;3.77;3.40;;;;;;;19.82;100.00;99160.50;5042526;28;20231;-78
2022/08/05 00:19:21;;;;;;;3.93;3.63;;;;;;;19.75;100.00;99158.13;5040792;28;20231;-78
2022/08/05 00:21:48;;;;;;;3.57;3.37;;;;;;;19.73;100.00;99146.75;5040344;28;20231;-78
2022/08/05 00:24:15;;;;;;;3.83;3.53;;;;;;;19.70;100.00;99153.53;5041059;28;20316;-79
2022/08/05 00:26:51;;;;;;;3.90;3.50;;;;;;;19.68;100.00;99152.22;5043178;28;20595;-79
2022/08/05 00:29:20;;;;;;;4.07;3.77;;;;;;;19.62;100.00;99148.75;5044062;28;20257;-78
2022/08/05 00:31:50;;;;;;;4.00;3.70;;;;;;;19.58;100.00;99145.00;5041276;28;20250;-77
2022/08/05 00:34:38;;;;;;;3.97;3.57;;;;;;;19.58;100.00;99146.91;5041420;28;20319;-77
2022/08/05 00:37:25;;;;;;;3.63;3.33;;;;;;;19.57;100.00;99139.84;5043793;28;20287;-77
2022/08/05 00:40:12;;;;;;;4.10;3.70;;;;;;;19.54;100.00;99141.25;5043278;28;20254;-76
2022/08/05 00:42:43;;;;;;;4.00;3.70;;;;;;;19.53;100.00;99131.47;5045517;28;20237;-77
2022/08/05 00:45:14;;;;;;;4.13;3.83;;;;;;;19.49;100.00;99129.63;5046680;28;20240;-77
2022/08/05 00:47:41;;;;;;;4.07;3.77;;;;;;;19.47;100.00;99131.81;5049064;28;20253;-75
2022/08/05 00:50:28;;;;;;;6.03;4.10;;;;;;;19.47;100.00;99127.19;5046597;28;20234;-78
2022/08/05 00:52:54;;;;;;;4.53;4.10;;;;;;;19.43;100.00;99126.13;5048724;28;20244;-76
2022/08/05 00:55:22;;;;;;;4.33;3.87;;;;;;;19.36;100.00;99129.19;5049767;28;20260;-79
2022/08/05 00:58:09;;;;;;;4.00;3.70;;;;;;;19.35;100.00;99126.78;5051914;28;20280;-77
2022/08/05 01:00:38;;;;;;;4.30;4.00;;;;;;;19.34;100.00;99123.25;5053055;28;20702;-78
2022/08/05 01:03:05;;;;;;;4.30;3.93;;;;;;;19.33;100.00;99115.38;5053245;28;20271;-77
2022/08/05 01:05:34;;;;;;;4.20;3.80;;;;;;;19.30;100.00;99119.50;5051340;28;20235;-76
2022/08/05 01:08:01;;;;;;;4.17;3.80;;;;;;;19.27;100.00;99116.56;5049600;28;20240;-77
2022/08/05 01:10:51;;;;;;;4.23;3.87;;;;;;;19.20;100.00;99119.59;5051536;28;20323;-78
2022/08/05 01:13:30;;;;;;;4.30;3.90;;;;;;;19.19;100.00;99120.69;5051408;28;20230;-78
2022/08/05 01:16:47;;;;;;;4.40;4.00;;;;;;;19.17;100.00;99116.66;5048288;28;20762;-78
2022/08/05 01:19:37;;;;;;;4.10;3.80;;;;;;;19.11;100.00;99115.91;5051295;28;20292;-78
2022/08/05 01:22:41;;;;;;;4.53;4.13;;;;;;;19.08;100.00;99123.81;5049349;28;20253;-77
2022/08/05 01:25:21;;;;;;;4.77;4.33;;;;;;;19.01;100.00;99110.56;5047850;28;20239;-77
2022/08/05 01:28:13;;;;;;;4.23;3.93;;;;;;;19.00;100.00;99114.38;5050071;28;20324;-78
2022/08/05 01:30:52;;;;;;;6.27;4.30;;;;;;;19.00;100.00;99111.66;5050082;28;20239;-79
2022/08/05 01:33:23;;;;;;;5.90;4.10;;;;;;;19.00;100.00;99111.66;5047599;28;20254;-77
2022/08/05 01:35:53;;;;;;;4.27;3.97;;;;;;;18.97;100.00;99109.53;5050544;28;20231;-77
2022/08/05 01:38:24;;;;;;;4.73;4.33;;;;;;;18.94;100.00;99104.69;5050480;28;20232;-77
2022/08/05 01:40:59;;;;;;;4.53;4.13;;;;;;;18.95;100.00;99109.00;5050333;28;20340;-77
2022/08/05 01:43:27;;;;;;;4.80;4.40;;;;;;;18.91;100.00;99108.75;5048163;28;20244;-78
2022/08/05 01:45:54;;;;;;;5.93;4.53;;;;;;;18.88;100.00;99103.09;5047591;28;20315;-76
2022/08/05 01:48:24;;;;;;;4.90;4.60;;;;;;;18.84;100.00;99102.06;5046869;28;20269;-78
2022/08/05 01:50:54;;;;;;;4.63;4.27;;;;;;;18.81;100.00;99105.31;5047862;28;20235;-77
2022/08/05 01:53:22;;;;;;;4.90;4.50;;;;;;;18.78;100.00;99101.28;5048427;28;20329;-78
2022/08/05 01:56:10;;;;;;;4.97;4.57;;;;;;;18.74;100.00;99094.00;5048631;28;20647;-77
2022/08/05 01:58:38;;;;;;;5.07;4.67;;;;;;;18.76;100.00;99099.94;5048077;28;20228;-77
2022/08/05 02:01:12;;;;;;;6.43;4.50;;;;;;;18.73;100.00;99103.25;5046738;28;20232;-77
2022/08/05 02:03:43;;;;;;;5.10;4.70;;;;;;;18.68;100.00;99098.66;5047834;28;20250;-78
2022/08/05 02:06:10;;;;;;;4.90;4.50;;;;;;;18.67;100.00;99101.66;5045539;28;20707;-77
2022/08/05 02:08:56;;;;;;;5.20;4.80;;;;;;;18.65;100.00;99101.16;5045614;28;20364;-79
2022/08/05 02:11:25;;;;;;;4.87;4.57;;;;;;;18.64;100.00;99113.09;5049837;28;20225;-79
2022/08/05 02:14:07;;;;;;;5.37;5.07;;;;;;;18.63;100.00;99106.84;5046522;28;20327;-77
2022/08/05 02:16:44;;;;;;;6.80;4.97;;;;;;;18.61;100.00;99108.25;5035966;28;20228;-77
2022/08/05 02:19:24;;;;;;;5.70;5.10;;;;;;;18.59;100.00;99096.84;5034602;28;20313;-77
2022/08/05 02:22:07;;;;;;;4.90;4.60;;;;;;;18.54;100.00;99094.19;5046919;28;20301;-77
2022/08/05 02:24:37;;;;;;;5.57;5.07;;;;;;;18.53;100.00;99090.66;5045270;28;20273;-77
2022/08/05 02:27:07;;;;;;;5.40;5.00;;;;;;;18.54;100.00;99094.19;5055334;28;20262;-79
2022/08/05 02:29:36;;;;;;;5.47;5.07;;;;;;;18.48;100.00;99094.19;5050839;28;20613;-77
2022/08/05 02:32:25;;;;;;;5.73;5.20;;;;;;;18.45;100.00;99085.81;5050163;28;20235;-77
2022/08/05 02:34:59;;;;;;;5.70;5.20;;;;;;;18.41;100.00;99098.34;5045945;28;20774;-77
2022/08/05 02:37:40;;;;;;;5.40;5.00;;;;;;;18.39;100.00;99098.59;5044147;28;20570;-77
2022/08/05 02:40:15;;;;;;;5.67;4.97;;;;;;;18.38;100.00;99085.34;5054560;28;20308;-78
2022/08/05 02:42:43;;;;;;;5.63;5.23;;;;;;;18.32;100.00;99086.47;5050812;28;20306;-77
2022/08/05 02:45:20;;;;;;;5.83;5.47;;;;;;;18.25;100.00;99083.25;5053435;28;20227;-77
2022/08/05 02:47:51;;;;;;;7.03;5.77;;;;;;;18.22;100.00;99086.53;5056627;28;20231;-77
2022/08/05 02:50:38;;;;;;;6.30;5.70;;;;;;;18.17;100.00;99083.88;5046472;28;20239;-77
2022/08/05 02:53:10;;;;;;;6.50;6.00;;;;;;;18.11;100.00;99083.09;5050466;28;20265;-77
2022/08/05 02:55:48;;;;;;;6.50;6.00;;;;;;;18.10;100.00;99077.97;5046990;28;20630;-76
2022/08/05 02:58:25;;;;;;;6.33;5.80;;;;;;;18.05;100.00;99078.81;5048167;28;20231;-77
2022/08/05 03:00:59;;;;;;;7.03;5.97;;;;;;;18.05;100.00;99078.81;5049550;28;20255;-79
2022/08/05 03:03:28;;;;;;;6.97;6.03;;;;;;;18.05;100.00;99070.69;5047388;28;20772;-77
2022/08/05 03:06:15;;;;;;;6.57;5.80;;;;;;;18.00;100.00;99070.72;5055982;28;20253;-77
2022/08/05 03:09:02;;;;;;;6.50;6.00;;;;;;;17.99;100.00;99071.78;5048543;28;20621;-77
2022/08/05 03:11:29;;;;;;;6.30;5.90;;;;;;;17.97;100.00;99071.25;5050506;28;20593;-77
2022/08/05 03:14:16;;;;;;;6.83;6.23;;;;;;;17.95;100.00;99071.56;5049592;28;20269;-77
2022/08/05 03:16:42;;;;;;;6.53;5.90;;;;;;;17.90;100.00;99068.06;5047761;28;20232;-77
2022/08/05 03:19:09;;;;;;;7.90;6.87;;;;;;;17.89;100.00;99064.53;5047612;28;20236;-77
2022/08/05 03:21:42;;;;;;;7.17;6.47;;;;;;;17.90;100.00;99068.06;5045795;28;20252;-76
2022/08/05 03:24:17;;;;;;;10.13;6.43;;;;;;;17.88;100.00;99059.38;5047543;28;20231;-76
2022/08/05 03:26:55;;;;;;;6.60;6.20;;;;;;;17.90;100.00;99062.63;5049294;28;20234;-77
2022/08/05 03:29:22;;;;;;;6.70;6.20;;;;;;;17.88;100.00;99065.63;5043777;28;20702;-76
2022/08/05 03:31:49;;;;;;;6.63;6.07;;;;;;;17.88;100.00;99062.09;5051063;28;20293;-77
2022/08/05 03:34:26;;;;;;;6.80;6.30;;;;;;;17.87;100.00;99058.56;5047402;28;20233;-76
2022/08/05 03:36:54;;;;;;;7.13;6.53;;;;;;;17.84;100.00;99069.16;5043271;28;20222;-77
2022/08/05 03:39:21;;;;;;;8.20;6.37;;;;;;;17.83;100.00;99062.94;5050995;28;20268;-76
2022/08/05 03:41:56;;;;;;;6.97;6.23;;;;;;;17.83;100.00;99065.66;5046376;28;20235;-76
2022/08/05 03:44:24;;;;;;;7.43;6.83;;;;;;;17.84;100.00;99069.97;5045786;28;20229;-77
2022/08/05 03:46:54;;;;;;;7.37;6.27;;;;;;;17.87;100.00;99069.41;5038974;28;20281;-76
2022/08/05 03:49:21;;;;;;;7.30;6.70;;;;;;;17.88;100.00;99070.22;5050598;28;20230;-76
2022/08/05 03:52:00;;;;;;;7.20;6.70;;;;;;;17.94;100.00;99072.63;5048424;28;20282;-78
2022/08/05 03:54:55;;;;;;;7.50;6.80;;;;;;;17.97;100.00;99076.66;5055167;28;20235;-77
2022/08/05 03:57:44;;;;;;;7.87;7.07;;;;;;;18.04;100.00;99085.31;5027873;28;20234;-77
2022/08/05 04:00:13;;;;;;;6.87;6.47;;;;;;;18.36;100.00;99112.75;5049673;28;20608;-77
2022/08/05 04:02:47;;;;;;;7.50;6.80;;;;;;;18.73;100.00;99079.63;5041820;28;20233;-76
2022/08/05 04:05:32;;;;;;;7.50;6.73;;;;;;;19.13;100.00;99088.47;5028654;28;20273;-77
2022/08/05 04:08:06;;;;;;;6.83;6.33;;;;;;;19.61;100.00;99086.53;5045337;28;20264;-79
2022/08/05 04:10:53;;;;;;;6.50;5.90;;;;;;;19.94;100.00;99082.03;5042794;28;20227;-77
2022/08/05 04:13:20;;;;;;;7.20;6.70;;;;;;;19.89;100.00;99079.38;5045015;28;20260;-77
2022/08/05 04:15:48;;;;;;;7.30;6.63;;;;;;;19.69;100.00;99075.06;5038766;28;20239;-77
2022/08/05 04:18:29;;;;;;;7.43;6.83;;;;;;;19.57;100.00;99077.38;5044027;28;20248;-79
2022/08/05 04:20:56;;;;;;;7.27;6.53;;;;;;;19.52;100.00;99080.97;5040884;28;20711;-77
2022/08/05 04:23:25;;;;;;;6.90;6.30;;;;;;;19.45;100.00;99080.50;5040653;28;20241;-77
2022/08/05 04:26:15;;;;;;;7.20;6.50;;;;;;;19.44;100.00;99081.59;5041982;28;20227;-77
2022/08/05 04:28:43;;;;;;;7.33;6.70;;;;;;;19.47;100.00;99081.00;5049268;28;20220;-77
2022/08/05 04:31:17;;;;;;;7.37;6.67;;;;;;;19.57;100.00;99078.19;5047207;28;20236;-77
2022/08/05 04:33:44;;;;;;;6.83;6.23;;;;;;;19.68;100.00;99081.56;5052932;28;20236;-78
2022/08/05 04:36:30;;;;;;;7.13;6.53;;;;;;;19.77;100.00;99086.06;5052419;28;20230;-80
2022/08/05 04:39:12;;;;;;;7.93;6.90;;;;;;;19.88;100.00;99072.31;5044258;28;20228;-79
2022/08/05 04:41:39;;;;;;;8.30;6.73;;;;;;;19.94;100.00;99080.13;5032131;28;20282;-79
2022/08/05 04:44:06;;;;;;;8.27;6.53;;;;;;;20.09;100.00;99077.19;5053816;28;20232;-79
2022/08/05 04:46:35;;;;;;;7.63;6.87;;;;;;;20.20;100.00;99077.84;5053618;28;20234;-79
2022/08/05 04:49:02;;;;;;;7.37;6.67;;;;;;;20.35;100.00;99069.44;5050626;28;20631;-79
2022/08/05 04:51:28;;;;;;;6.93;6.23;;;;;;;20.50;100.00;99071.94;5049223;28;20232;-79
2022/08/05 04:53:56;;;;;;;7.40;6.80;;;;;;;20.74;100.00;99070.97;5046455;28;20236;-79
2022/08/05 04:56:23;;;;;;;6.50;6.10;;;;;;;20.95;100.00;99072.25;5052350;28;20310;-79
2022/08/05 04:59:02;;;;;;;7.20;6.60;;;;;;;21.16;100.00;99072.69;5050192;28;20315;-79
2022/08/05 05:01:50;;;;;;;7.23;6.70;;;;;;;21.35;100.00;99071.47;5051774;28;20303;-79
2022/08/05 05:04:37;;;;;;;7.00;6.30;;;;;;;21.52;100.00;99068.94;5046789;28;20290;-79
2022/08/05 05:07:14;;;;;;;7.20;6.70;;;;;;;21.72;100.00;99066.88;5045159;28;20323;-79
2022/08/05 05:09:43;;;;;;;7.32;6.70;;;;;;;21.91;100.00;99073.81;5045727;28;20252;-79
2022/08/05 05:12:10;;;;;;;7.33;6.70;;;;;;;22.09;100.00;99065.81;5042504;28;20242;-78
2022/08/05 05:14:37;;;;;;;7.03;6.43;;;;;;;22.23;100.00;99059.19;5050482;28;20818;-79
2022/08/05 05:17:15;;;;;;;6.85;6.30;;;;;;;22.44;100.00;99072.34;5049858;28;20229;-80
2022/08/05 05:19:49;;;;;;;7.05;6.53;;;;;;;22.67;100.00;99063.81;5049630;28;20230;-80
2022/08/05 05:22:15;;;;;;;7.18;6.57;;;;;;;22.80;100.00;99068.41;5043769;28;20309;-79
2022/08/05 05:24:51;;;;;;;7.40;6.53;;;;;;;22.97;100.00;99070.41;5047073;28;20229;-81
2022/08/05 05:27:31;;;;;;;7.28;6.50;;;;;;;23.14;100.00;99073.22;5049969;28;20269;-79
2022/08/05 05:30:15;;;;;;;7.07;6.45;;;;;;;23.32;100.00;99082.31;5044489;28;20305;-78
2022/08/05 05:32:56;;;;;;;6.93;6.32;;;;;;;23.45;100.00;99070.47;5030821;28;20250;-79
2022/08/05 05:35:27;;;;;;;8.32;6.50;;;;;;;23.58;100.00;99066.81;5052685;28;20808;-79
2022/08/05 05:38:01;;;;;;;7.30;6.50;;;;;;;23.76;100.00;99075.03;5046537;28;20221;-79
2022/08/05 05:40:31;;;;;;;6.53;6.03;;;;;;;23.97;100.00;99067.84;5036486;28;20260;-79
2022/08/05 05:43:00;;;;;;;10.25;6.22;;;;;;;24.03;100.00;99069.28;5042110;28;20232;-79
2022/08/05 05:45:28;;;;;;;7.32;5.90;;;;;;;24.13;97.12;99068.97;5044842;28;20651;-79
2022/08/05 05:47:57;;;;;;;8.93;5.88;;;;;;;24.26;92.90;99068.03;5048777;28;20236;-79
2022/08/05 05:50:35;;;;;;;6.50;5.90;;;;;;;24.48;90.73;99070.59;5044760;28;20233;-79
2022/08/05 05:53:14;;;;;;;9.77;5.90;;;;;;;24.64;89.71;99064.56;5031116;28;20619;-79
2022/08/05 05:55:47;;;;;;;7.30;5.68;;;;;;;24.80;91.44;99066.50;5045154;28;20632;-79
2022/08/05 05:58:26;;;;;;;7.82;5.60;;;;;;;24.97;88.50;99071.13;5046620;28;20246;-81
2022/08/05 06:01:00;;;;;;;6.65;5.95;;;;;;;25.08;83.23;99074.31;5046330;28;20764;-79
2022/08/05 06:03:40;;;;;;;6.10;5.50;;;;;;;25.17;80.19;99062.19;5048498;28;20229;-80
2022/08/05 06:06:26;;;;;;;7.47;5.85;;;;;;;25.35;78.57;99062.91;5048343;28;20225;-78
2022/08/05 06:09:00;;;;;;;7.93;5.50;;;;;;;25.46;78.85;99068.84;5050324;28;20773;-78
2022/08/05 06:11:28;;;;;;;6.75;5.70;;;;;;;25.53;77.29;99067.16;5047271;28;20240;-79
2022/08/05 06:13:55;;;;;;;8.48;5.32;;;;;;;25.69;77.00;99073.72;5050488;28;20259;-81
2022/08/05 06:16:22;;;;;;;6.82;5.50;;;;;;;25.80;74.27;99074.94;5047148;28;20761;-81
2022/08/05 06:18:58;;;;;;;7.50;5.38;;;;;;;25.91;73.02;99069.84;5048825;28;20285;-81
2022/08/05 06:21:26;;;;;;;6.10;5.32;;;;;;;26.00;71.33;99069.78;5048222;28;20237;-81
2022/08/05 06:24:06;;;;;;;8.10;5.65;;;;;;;26.16;70.49;99068.88;5051068;28;20238;-78
2022/08/05 06:26:37;;;;;;;7.13;5.25;;;;;;;26.21;69.55;99065.94;5050250;28;20271;-82
2022/08/05 06:29:03;;;;;;;5.88;5.28;;;;;;;26.36;67.41;99070.03;5049783;28;20252;-81
2022/08/05 06:31:50;;;;;;;6.53;5.90;;;;;;;26.44;66.72;99079.31;5048739;28;20283;-80
2022/08/05 06:34:17;;;;;;;5.93;5.13;;;;;;;26.46;64.91;99071.53;5048284;28;20237;-80
2022/08/05 06:36:45;;;;;;;6.65;5.45;;;;;;;26.54;64.89;99070.66;5046274;28;20237;-79
2022/08/05 06:39:24;;;;;;;6.93;5.10;;;;;;;26.69;65.17;99075.50;5048701;28;20233;-81
2022/08/05 06:41:54;;;;;;;12.23;5.25;;;;;;;26.70;63.54;99082.59;5051135;28;20332;-80
2022/08/05 06:44:22;;;;;;;6.18;4.85;;;;;;;26.72;63.24;99070.16;5047689;28;20243;-81
2022/08/05 06:46:48;;;;;;;7.32;5.00;;;;;;;26.85;63.42;99081.97;5049854;28;20230;-80
2022/08/05 06:49:16;;;;;;;5.63;5.00;;;;;;;26.97;63.01;99075.72;5051399;28;21061;-80
2022/08/05 06:51:47;;;;;;;5.82;5.05;;;;;;;26.90;63.80;99073.53;5046065;28;20697;-81
2022/08/05 06:54:13;;;;;;;5.82;4.72;;;;;;;27.13;63.40;99082.16;5046217;28;20259;-81
2022/08/05 06:56:45;;;;;;;9.50;5.78;;;;;;;27.12;60.50;99075.84;5049743;28;20265;-82
2022/08/05 06:59:31;;;;;;;7.05;5.40;;;;;;;26.84;63.53;99076.78;5047770;28;20252;-81
2022/08/05 07:02:08;;;;;;;7.97;5.30;;;;;;;27.12;61.23;99078.59;5050495;28;20232;-81
2022/08/05 07:04:34;;;;;;;7.55;5.45;;;;;;;27.30;60.14;99070.13;5050856;28;20217;-79
2022/08/05 07:07:02;;;;;;;5.95;5.45;;;;;;;27.18;58.63;99070.94;5049232;28;20245;-79
2022/08/05 07:09:33;;;;;;;5.82;5.15;;;;;;;27.40;57.99;99073.22;5050573;28;20743;-82
2022/08/05 07:12:06;;;;;;;5.72;5.10;;;;;;;27.44;57.57;99076.91;5050366;28;20244;-80
2022/08/05 07:17:20;;;;;;;7.10;5.03;;;;;;;27.58;55.83;99076.56;5048258;28;20597;-79
2022/08/05 07:20:07;;;;;;;5.55;4.90;;;;;;;27.48;56.76;99079.78;5049950;28;20783;-80
2022/08/05 07:22:53;;;;;;;5.78;5.30;;;;;;;27.70;56.65;99082.09;5048485;28;20283;-81
2022/08/05 07:25:20;;;;;;;6.10;4.85;;;;;;;27.78;56.15;99083.09;5049067;28;20237;-81
2022/08/05 07:28:07;;;;;;;6.13;5.10;;;;;;;27.72;55.58;99079.78;5050069;28;20225;-80
2022/08/05 07:30:43;;;;;;;5.20;4.78;;;;;;;27.97;55.17;99086.03;5048815;28;20303;-78
2022/08/05 07:33:15;;;;;;;5.13;4.43;;;;;;;27.98;53.72;99079.41;5045091;28;20240;-79
2022/08/05 07:35:44;;;;;;;5.30;4.82;;;;;;;28.15;52.61;99070.06;5047331;28;20295;-79
2022/08/05 07:38:32;;;;;;;5.70;5.20;;;;;;;28.34;52.39;99067.47;5045534;28;20237;-78
2022/08/05 07:41:11;;;;;;;5.40;4.80;;;;;;;28.51;52.73;99074.66;5042691;28;20271;-81
2022/08/05 07:43:58;;;;;;;5.45;4.95;;;;;;;28.64;51.98;99065.19;5049319;28;20279;-79
2022/08/05 07:46:27;;;;;;;5.00;4.60;;;;;;;28.61;53.00;99069.44;5047228;28;20226;-78
2022/08/05 07:48:56;;;;;;;5.25;4.75;;;;;;;28.66;51.76;99066.41;5047810;28;20241;-79
2022/08/05 07:51:32;;;;;;;5.60;5.20;;;;;;;28.76;52.28;99062.38;5047576;28;20239;-78
2022/08/05 07:54:04;;;;;;;5.50;4.82;;;;;;;28.83;52.26;99057.88;5051722;28;20230;-79
2022/08/05 07:56:30;;;;;;;5.75;4.65;;;;;;;29.09;52.45;99062.84;5048435;28;20237;-79
2022/08/05 07:59:17;;;;;;;5.32;4.68;;;;;;;29.22;51.13;99063.56;5045740;28;20367;-78
2022/08/05 08:01:56;;;;;;;4.72;4.32;;;;;;;29.28;50.41;99064.91;5045314;28;20240;-79
2022/08/05 08:04:23;;;;;;;5.97;4.90;;;;;;;29.45;50.10;99058.22;5042883;28;20222;-81
2022/08/05 08:07:03;;;;;;;7.85;4.93;;;;;;;29.62;49.26;99061.41;5046744;28;20779;-81
2022/08/05 08:09:33;;;;;;;5.10;4.60;;;;;;;29.78;48.30;99066.88;5048361;28;20252;-78
2022/08/05 08:12:00;;;;;;;4.82;4.53;;;;;;;30.03;47.42;99059.19;5045444;28;20242;-79
2022/08/05 08:14:44;;;;;;;5.03;4.63;;;;;;;30.13;47.35;99064.94;5044484;28;20256;-78
2022/08/05 08:17:13;;;;;;;4.90;4.50;;;;;;;30.26;47.04;99062.84;5044875;28;20749;-78
2022/08/05 08:19:43;;;;;;;6.50;4.40;;;;;;;30.10;47.72;99062.09;5046389;28;20229;-79
2022/08/05 08:22:29;;;;;;;5.20;4.78;;;;;;;29.98;47.74;99059.47;5046381;28;20233;-81
2022/08/05 08:24:58;;;;;;;5.18;4.68;;;;;;;30.15;48.23;99061.81;5046831;28;20225;-80
2022/08/05 08:27:32;;;;;;;4.95;4.55;;;;;;;30.31;46.71;99058.97;5048221;28;20263;-80
2022/08/05 08:30:11;;;;;;;6.60;4.55;;;;;;;30.48;46.85;99064.88;5045731;28;20229;-79
2022/08/05 08:32:58;;;;;;;5.57;4.20;;;;;;;30.50;48.19;99059.81;5044533;28;20218;-79
2022/08/05 08:35:30;;;;;;;5.25;4.78;;;;;;;30.57;46.20;99051.63;5045668;28;20237;-81
2022/08/05 08:38:06;;;;;;;5.10;4.60;;;;;;;30.73;46.75;99051.53;5043538;28;20656;-81
2022/08/05 08:40:34;;;;;;;4.47;4.07;;;;;;;30.83;46.44;99052.91;5047117;28;20231;-79
2022/08/05 08:43:03;;;;;;;6.78;3.85;;;;;;;30.91;46.29;99054.63;5044277;28;20218;-79
2022/08/05 08:45:51;;;;;;;4.35;3.95;;;;;;;31.11;46.52;99050.66;5043789;28;20897;-79
2022/08/05 08:48:19;;;;;;;6.18;4.40;;;;;;;31.31;44.31;99051.38;5043999;28;20229;-78
2022/08/05 08:51:06;;;;;;;5.30;3.83;;;;;;;31.38;44.19;99044.00;5042531;28;20226;-80
2022/08/05 08:53:53;;;;;;;4.47;3.97;;;;;;;31.41;43.77;99042.44;5043002;28;20758;-80
2022/08/05 08:56:20;;;;;;;5.50;4.18;;;;;;;31.32;43.54;99048.22;5040050;28;20237;-80
2022/08/05 08:58:47;;;;;;;5.32;4.32;;;;;;;31.41;43.54;99045.19;5040627;28;20225;-80
2022/08/05 09:01:17;;;;;;;4.50;4.10;;;;;;;31.38;42.76;99044.00;5037642;28;20727;-79
2022/08/05 09:03:51;;;;;;;4.20;3.80;;;;;;;31.51;42.23;99043.78;5038576;28;20642;-79
2022/08/05 09:06:22;;;;;;;4.57;3.92;;;;;;;31.70;41.90;99043.69;5037494;28;20237;-79
2022/08/05 09:08:59;;;;;;;4.65;3.80;;;;;;;31.68;42.46;99044.06;5040794;28;20248;-78
2022/08/05 09:11:26;;;;;;;4.60;4.13;;;;;;;31.80;42.62;99038.31;5039796;28;20331;-80
2022/08/05 09:14:13;;;;;;;7.50;3.88;;;;;;;31.85;41.92;99034.41;5047280;28;20237;-78
2022/08/05 09:17:02;;;;;;;4.00;3.70;;;;;;;31.93;42.53;99044.41;5040658;28;20237;-81
2022/08/05 09:19:29;;;;;;;4.30;3.90;;;;;;;31.87;41.47;99035.63;5041070;28;20320;-81
2022/08/05 09:22:16;;;;;;;4.00;3.53;;;;;;;31.99;42.19;99031.84;5040734;28;20230;-79
2022/08/05 09:25:01;;;;;;;3.90;3.55;;;;;;;32.16;41.75;99033.25;5046009;28;20232;-78
2022/08/05 09:27:47;;;;;;;5.80;3.80;;;;;;;32.16;41.33;99036.81;5044459;28;20233;-79
2022/08/05 09:30:33;;;;;;;4.03;3.70;;;;;;;32.39;41.04;99033.13;5041685;28;20237;-81
2022/08/05 09:33:02;;;;;;;5.32;3.40;;;;;;;32.37;40.31;99032.72;5046720;28;20275;-80
2022/08/05 09:35:30;;;;;;;3.78;3.47;;;;;;;32.52;40.88;99029.69;5039161;28;20254;-79
2022/08/05 09:37:58;;;;;;;4.10;3.60;;;;;;;32.74;39.84;99028.78;5041881;28;20230;-79
2022/08/05 09:40:44;;;;;;;4.30;4.00;;;;;;;32.89;39.80;99026.97;5043436;28;20221;-78
2022/08/05 09:43:29;;;;;;;6.15;3.72;;;;;;;33.01;39.58;99032.22;5040789;28;20938;-79
2022/08/05 09:46:23;;;;;;;3.78;3.47;;;;;;;33.14;39.63;99024.38;5046912;28;20205;-80
2022/08/05 09:48:55;;;;;;;4.03;3.30;;;;;;;33.43;38.96;99022.66;5046813;28;20282;-79
2022/08/05 09:51:36;;;;;;;4.80;3.60;;;;;;;33.62;37.28;99017.63;5044152;28;20234;-80
2022/08/05 09:54:08;;;;;;;4.68;3.65;;;;;;;33.76;37.23;99021.69;5045379;28;20271;-79
2022/08/05 09:56:37;;;;;;;4.45;3.33;;;;;;;33.91;37.49;99023.38;5047391;28;20226;-80
2022/08/05 09:59:10;;;;;;;4.55;3.47;;;;;;;34.15;36.85;99019.09;5046102;28;20637;-82
2022/08/05 10:01:45;;;;;;;4.00;3.70;;;;;;;34.32;36.47;99018.38;5045410;28;20271;-78
2022/08/05 10:04:13;;;;;;;4.88;3.63;;;;;;;34.41;36.18;99013.25;5045187;28;20746;-79
2022/08/05 10:06:54;;;;;;;4.28;3.83;;;;;;;34.47;35.36;99015.25;5047428;28;20328;-79
2022/08/05 10:09:25;;;;;;;3.90;3.50;;;;;;;34.60;35.89;99012.09;5028569;28;20690;-80
2022/08/05 10:12:07;;;;;;;4.35;3.63;;;;;;;34.67;35.90;99014.94;5044722;28;20264;-79
2022/08/05 10:15:12;;;;;;;3.80;3.40;;;;;;;34.69;35.48;99015.31;5044831;28;20317;-78
2022/08/05 10:17:42;;;;;;;4.07;3.63;;;;;;;34.66;35.89;99005.75;5045128;28;20748;-78
2022/08/05 10:20:22;;;;;;;4.97;3.45;;;;;;;34.67;36.12;99012.94;5041841;28;20233;-79
2022/08/05 10:22:50;;;;;;;4.63;3.95;;;;;;;34.90;34.65;99007.78;5043463;28;20221;-78
2022/08/05 10:25:18;;;;;;;3.95;3.65;;;;;;;34.76;35.47;99002.22;5044092;28;20234;-79
2022/08/05 10:27:46;;;;;;;4.40;3.53;;;;;;;34.88;35.19;99012.16;5044357;28;20237;-78
2022/08/05 10:30:34;;;;;;;3.80;3.50;;;;;;;35.05;34.18;99010.56;5043104;28;20222;-79
2022/08/05 10:33:23;;;;;;;3.88;3.50;;;;;;;35.05;34.59;99002.22;5042156;28;20739;-78
2022/08/05 10:35:55;;;;;;;4.03;3.70;;;;;;;35.14;33.88;98999.84;5044816;28;20237;-79
2022/08/05 10:38:28;;;;;;;5.20;3.70;;;;;;;35.24;34.47;98999.06;5041951;28;20331;-79
2022/08/05 10:41:17;;;;;;;4.60;3.30;;;;;;;35.30;34.55;98994.69;5045102;28;20222;-79
2022/08/05 10:43:59;;;;;;;3.72;3.42;;;;;;;35.44;33.54;98991.09;5046613;28;20233;-78
2022/08/05 10:46:49;;;;;;;4.55;3.47;;;;;;;35.44;33.96;98988.31;5045865;28;20817;-81
2022/08/05 10:49:20;;;;;;;3.40;3.10;;;;;;;35.50;34.49;98984.72;5045258;28;20588;-78
2022/08/05 10:51:57;;;;;;;3.33;3.10;;;;;;;35.56;32.83;98985.06;5046430;28;20654;-79
2022/08/05 10:54:47;;;;;;;3.80;3.50;;;;;;;35.67;32.97;98972.75;5043261;28;20755;-79
2022/08/05 10:57:26;;;;;;;3.45;3.15;;;;;;;35.74;32.77;98975.50;5044569;28;20312;-79
2022/08/05 11:00:17;;;;;;;3.78;3.20;;;;;;;35.99;31.29;98980.19;5047225;28;20213;-79
2022/08/05 11:03:04;;;;;;;3.67;3.38;;;;;;;36.07;31.97;98976.97;5046787;28;20658;-79
2022/08/05 11:06:04;;;;;;;3.20;3.00;;;;;;;36.31;31.54;98977.25;5050408;28;20237;-79
2022/08/05 11:08:33;;;;;;;3.60;3.30;;;;;;;36.01;31.77;98978.59;5047576;28;20241;-79
2022/08/05 11:11:33;;;;;;;3.58;3.25;;;;;;;36.00;31.91;98979.78;5045605;28;20239;-79
2022/08/05 11:14:24;;;;;;;4.55;3.05;;;;;;;36.00;31.87;98979.00;5047070;28;20307;-79
2022/08/05 11:17:23;;;;;;;3.33;3.03;;;;;;;35.76;31.69;98981.47;5048911;28;20247;-80
2022/08/05 11:20:32;;;;;;;3.10;2.90;;;;;;;35.91;31.91;98973.06;5048002;28;20690;-80
2022/08/05 11:22:59;;;;;;;5.88;3.22;;;;;;;36.05;31.27;98976.59;5049762;28;20718;-80
2022/08/05 11:25:37;;;;;;;3.33;3.13;;;;;;;36.17;31.15;98976.16;5049985;28;20237;-80
2022/08/05 11:28:24;;;;;;;3.45;3.22;;;;;;;36.08;31.12;98975.75;5045740;28;20236;-78
2022/08/05 11:31:00;;;;;;;3.78;3.47;;;;;;;36.01;31.69;98970.25;5049942;28;20311;-78
2022/08/05 11:33:39;;;;;;;4.18;3.40;;;;;;;36.06;32.65;98977.38;5048661;28;20679;-79
2022/08/05 11:36:16;;;;;;;5.10;3.20;;;;;;;35.92;32.39;98974.66;5048039;28;20244;-79
2022/08/05 11:39:04;;;;;;;7.28;3.65;;;;;;;35.79;33.25;98971.50;5047383;28;20230;-79
2022/08/05 11:41:32;;;;;;;4.05;3.75;;;;;;;35.62;32.21;98972.34;5049601;28;20241;-80
2022/08/05 11:44:19;;;;;;;4.05;3.75;;;;;;;35.98;31.87;98970.22;5048649;28;20320;-78
2022/08/05 11:47:06;;;;;;;3.72;3.42;;;;;;;36.35;31.28;98986.44;5034836;28;20233;-78
2022/08/05 11:49:42;;;;;;;3.97;3.20;;;;;;;36.54;31.32;98977.50;5045391;28;20233;-79
2022/08/05 11:52:23;;;;;;;4.90;3.45;;;;;;;36.31;31.94;98986.44;5049296;28;20240;-78
2022/08/05 11:54:56;;;;;;;3.63;3.33;;;;;;;36.55;30.84;98985.50;5048280;28;20229;-79
2022/08/05 11:57:30;;;;;;;4.53;3.70;;;;;;;36.47;31.10;98977.56;5049616;28;20275;-78
2022/08/05 12:00:30;;;;;;;4.65;3.53;;;;;;;36.71;30.44;98973.06;5047097;28;20312;-80
2022/08/05 12:02:56;;;;;;;3.85;3.47;;;;;;;36.85;31.08;98978.53;5047053;28;20229;-78
2022/08/05 12:05:25;;;;;;;3.90;3.60;;;;;;;36.84;30.09;98977.72;5049383;28;20320;-79
2022/08/05 12:08:04;;;;;;;3.80;3.50;;;;;;;36.93;29.84;98980.84;5046160;28;20222;-79
2022/08/05 12:10:38;;;;;;;4.03;3.72;;;;;;;36.87;29.01;98982.50;5046982;28;20229;-79
2022/08/05 12:13:13;;;;;;;4.70;3.80;;;;;;;36.87;30.18;98978.91;5046584;28;20228;-79